createdAt,value
2018-03-02T00:00:29.080Z,27.00
2018-03-02T00:02:56.609Z,28.73
2018-03-02T00:05:24.133Z,34.78
2018-03-02T00:07:51.822Z,30.80
2018-03-02T00:10:19.387Z,27.58
2018-03-02T00:12:46.946Z,24.60
2018-03-02T00:15:14.602Z,31.67
2018-03-02T00:17:42.136Z,25.58
2018-03-02T00:20:09.716Z,27.87
2018-03-02T00:22:37.377Z,22.73
2018-03-02T00:25:05.008Z,29.10
2018-03-02T00:27:32.581Z,27.27
2018-03-02T00:30:00.220Z,25.33
2018-03-02T00:32:27.772Z,24.67
2018-03-02T00:34:55.304Z,22.37
2018-03-02T00:37:22.833Z,23.38
2018-03-02T00:39:50.365Z,23.62
2018-03-02T00:42:17.873Z,23.62
2018-03-02T00:44:45.386Z,30.65
2018-03-02T00:47:12.932Z,24.67
2018-03-02T00:49:40.500Z,29.58
2018-03-02T00:52:08.076Z,26.70
2018-03-02T00:54:35.837Z,29.25
2018-03-02T00:57:03.382Z,28.95
2018-03-02T00:59:30.916Z,26.42
2018-03-02T01:01:58.535Z,29.65
2018-03-02T01:04:26.066Z,25.60
2018-03-02T01:06:53.657Z,30.35
2018-03-02T01:09:21.223Z,26.00
2018-03-02T01:11:48.756Z,24.87
2018-03-02T01:14:16.265Z,26.67
2018-03-02T01:16:43.824Z,27.45
2018-03-02T01:19:11.324Z,23.02
2018-03-02T01:21:38.851Z,25.55
2018-03-02T01:24:06.381Z,30.62
2018-03-02T01:26:33.951Z,24.15
2018-03-02T01:29:01.605Z,28.55
2018-03-02T01:31:29.219Z,27.83
2018-03-02T01:33:56.746Z,27.58
2018-03-02T01:36:24.380Z,26.50
2018-03-02T01:38:51.953Z,22.87
2018-03-02T01:41:19.486Z,24.20
2018-03-02T01:43:47.017Z,25.50
2018-03-02T01:46:14.553Z,24.48
2018-03-02T01:48:42.078Z,25.12
2018-03-02T01:51:09.616Z,26.85
2018-03-02T01:53:37.294Z,31.52
2018-03-02T01:56:04.897Z,25.60
2018-03-02T01:58:32.464Z,32.72
2018-03-02T02:01:00.078Z,30.35
2018-03-02T02:03:27.650Z,31.95
2018-03-02T02:05:55.254Z,29.40
2018-03-02T02:08:22.846Z,30.67
2018-03-02T02:10:50.376Z,30.30
2018-03-02T02:13:17.903Z,33.67
2018-03-02T02:15:45.457Z,29.92
2018-03-02T02:18:12.974Z,37.47
2018-03-02T02:20:40.491Z,32.38
2018-03-02T02:23:08.053Z,31.67
2018-03-02T02:25:35.577Z,30.65
2018-03-02T02:28:03.109Z,29.33
2018-03-02T02:30:30.642Z,29.73
2018-03-02T02:32:58.171Z,31.60
2018-03-02T02:35:25.695Z,32.10
2018-03-02T02:37:53.253Z,28.73
2018-03-02T02:40:20.829Z,30.20
2018-03-02T02:42:48.310Z,25.15
2018-03-02T02:45:15.839Z,26.80
2018-03-02T02:47:43.370Z,33.30
2018-03-02T02:50:10.939Z,34.53
2018-03-02T02:52:38.482Z,32.78
2018-03-02T02:55:06.066Z,36.60
2018-03-02T02:57:33.593Z,32.67
2018-03-02T03:00:01.213Z,34.50
2018-03-02T03:02:28.778Z,38.13
2018-03-02T03:04:56.286Z,37.30
2018-03-02T03:07:23.813Z,34.70
2018-03-02T03:09:51.409Z,31.25
2018-03-02T03:12:18.962Z,31.98
2018-03-02T03:14:46.481Z,34.20
2018-03-02T03:17:14.077Z,36.25
2018-03-02T03:19:41.641Z,41.40
2018-03-02T03:22:09.160Z,33.40
2018-03-02T03:24:36.825Z,39.05
2018-03-02T03:27:04.342Z,31.58
2018-03-02T03:29:31.918Z,32.00
2018-03-02T03:31:59.458Z,36.33
2018-03-02T03:34:26.974Z,33.67
2018-03-02T03:36:54.487Z,31.50
2018-03-02T03:39:22.107Z,34.53
2018-03-02T03:41:49.678Z,33.25
2018-03-02T03:44:17.233Z,29.98
2018-03-02T03:46:44.774Z,28.40
2018-03-02T03:49:12.337Z,33.30
2018-03-02T03:51:39.881Z,31.77
2018-03-02T03:54:07.480Z,31.48
2018-03-02T03:56:35.025Z,30.35
2018-03-02T03:59:02.603Z,32.40
2018-03-02T04:01:30.189Z,26.10
2018-03-02T04:03:57.709Z,29.55
2018-03-02T04:06:25.245Z,28.08
2018-03-02T04:08:52.796Z,24.40
2018-03-02T04:11:20.312Z,24.55
2018-03-02T04:13:47.825Z,27.10
2018-03-02T04:16:15.383Z,28.48
2018-03-02T04:18:42.905Z,24.40
2018-03-02T04:21:10.417Z,27.40
2018-03-02T04:23:37.959Z,26.95
2018-03-02T04:26:05.562Z,24.55
2018-03-02T04:28:33.096Z,32.65
2018-03-02T04:31:00.672Z,28.58
2018-03-02T04:33:28.197Z,29.85
2018-03-02T04:35:55.705Z,23.98
2018-03-02T04:38:23.342Z,26.70
2018-03-02T04:40:50.862Z,30.12
2018-03-02T04:43:18.518Z,29.85
2018-03-02T04:45:46.092Z,31.92
2018-03-02T04:48:13.665Z,31.85
2018-03-02T04:50:41.201Z,31.62
2018-03-02T04:53:08.757Z,27.58
2018-03-02T04:55:36.293Z,36.88
2018-03-02T04:58:03.895Z,40.10
2018-03-02T05:00:31.489Z,41.80
2018-03-02T05:02:59.040Z,37.13
2018-03-02T05:05:26.674Z,38.85
2018-03-02T05:07:54.269Z,49.72
2018-03-02T05:10:21.838Z,40.85
2018-03-02T05:12:49.421Z,46.75
2018-03-02T05:15:17.023Z,51.92
2018-03-02T05:17:44.563Z,65.85
2018-03-02T05:20:12.191Z,104.75
2018-03-02T05:22:39.724Z,62.13
2018-03-02T05:25:07.255Z,61.67
2018-03-02T05:27:34.834Z,69.90
2018-03-02T05:30:02.452Z,23.48
2018-03-02T05:32:30.047Z,65.12
2018-03-02T05:34:57.565Z,55.65
2018-03-02T05:37:25.095Z,46.58
2018-03-02T05:39:52.669Z,47.97
2018-03-02T05:42:20.693Z,52.38
2018-03-02T05:44:48.301Z,59.80
2018-03-02T05:47:16.074Z,55.30
2018-03-02T05:49:43.616Z,68.82
2018-03-02T05:52:11.192Z,69.95
2018-03-02T05:54:38.728Z,70.90
2018-03-02T05:57:06.286Z,61.97
2018-03-02T05:59:33.886Z,44.03
2018-03-02T06:02:01.457Z,47.60
2018-03-02T06:04:28.989Z,45.75
2018-03-02T06:06:56.513Z,39.80
2018-03-02T06:09:24.050Z,40.53
2018-03-02T06:11:51.636Z,69.57
2018-03-02T06:14:19.149Z,47.58
2018-03-02T06:16:46.722Z,38.55
2018-03-02T06:19:14.287Z,49.08
2018-03-02T06:21:41.823Z,47.22
2018-03-02T06:24:09.645Z,43.17
2018-03-02T06:26:37.289Z,44.60
2018-03-02T06:29:04.819Z,48.63
2018-03-02T06:31:32.423Z,35.97
2018-03-02T06:33:59.995Z,39.78
2018-03-02T06:36:27.529Z,40.83
2018-03-02T06:38:55.202Z,40.22
2018-03-02T06:41:22.770Z,50.25
2018-03-02T06:43:50.328Z,55.85
2018-03-02T06:46:17.984Z,41.03
2018-03-02T06:48:45.575Z,41.58
2018-03-02T06:51:13.153Z,49.00
2018-03-02T06:53:40.725Z,46.83
2018-03-02T06:56:08.242Z,52.88
2018-03-02T06:58:35.937Z,43.97
2018-03-02T07:01:03.541Z,43.40
2018-03-02T07:03:31.061Z,53.15
2018-03-02T07:05:58.627Z,49.10
2018-03-02T07:08:26.287Z,54.40
2018-03-02T07:10:53.815Z,56.58
2018-03-02T07:13:21.474Z,66.82
2018-03-02T07:15:49.141Z,62.17
2018-03-02T07:18:16.661Z,68.65
2018-03-02T07:20:44.250Z,69.60
2018-03-02T07:23:11.789Z,68.25
2018-03-02T07:25:39.349Z,82.65
2018-03-02T07:28:06.978Z,71.20
2018-03-02T07:30:34.526Z,76.82
2018-03-02T07:33:02.106Z,80.68
2018-03-02T07:35:29.682Z,84.87
2018-03-02T07:37:57.281Z,87.03
2018-03-02T07:40:24.806Z,98.50
2018-03-02T07:42:52.428Z,112.75
2018-03-02T07:45:20.248Z,108.68
2018-03-02T07:47:48.067Z,110.63
2018-03-02T07:50:15.633Z,104.53
2018-03-02T07:52:43.244Z,114.40
2018-03-02T07:55:10.761Z,114.68
2018-03-02T07:57:38.305Z,104.00
2018-03-02T08:00:06.512Z,109.50
2018-03-02T08:02:34.052Z,87.93
2018-03-02T08:05:01.639Z,77.43
2018-03-02T08:07:29.226Z,74.53
2018-03-02T08:09:56.788Z,75.03
2018-03-02T08:12:24.324Z,68.60
2018-03-02T08:14:51.864Z,58.65
2018-03-02T08:17:19.457Z,54.83
2018-03-02T08:19:47.047Z,55.45
2018-03-02T08:22:14.610Z,56.37
2018-03-02T08:24:42.169Z,50.45
2018-03-02T08:27:09.695Z,49.03
2018-03-02T08:29:37.268Z,55.45
2018-03-02T08:32:04.818Z,55.47
2018-03-02T08:34:32.356Z,53.35
2018-03-02T08:36:59.889Z,43.50
2018-03-02T08:39:27.608Z,54.93
2018-03-02T08:41:55.233Z,52.43
2018-03-02T08:44:22.787Z,48.58
2018-03-02T08:46:50.408Z,54.50
2018-03-02T08:49:17.924Z,51.57
2018-03-02T08:51:45.506Z,57.83
2018-03-02T08:54:13.131Z,57.55
2018-03-02T08:56:40.710Z,60.53
2018-03-02T08:59:08.229Z,57.53
2018-03-02T09:01:35.805Z,56.97
2018-03-02T09:04:03.336Z,57.10
2018-03-02T09:06:30.912Z,60.70
2018-03-02T09:08:58.485Z,61.03
2018-03-02T09:11:26.068Z,51.87
2018-03-02T09:13:53.624Z,52.23
2018-03-02T09:16:21.206Z,49.80
2018-03-02T09:18:48.756Z,50.70
2018-03-02T09:21:16.316Z,57.20
2018-03-02T09:23:43.855Z,45.97
2018-03-02T09:26:11.433Z,50.83
2018-03-02T09:28:38.965Z,36.20
2018-03-02T09:31:06.563Z,40.77
2018-03-02T09:33:34.144Z,37.60
2018-03-02T09:36:01.709Z,45.57
2018-03-02T09:38:29.338Z,46.07
2018-03-02T09:40:56.865Z,40.20
2018-03-02T09:43:24.406Z,49.53
2018-03-02T09:45:51.973Z,44.53
2018-03-02T09:48:19.590Z,45.87
2018-03-02T09:50:47.207Z,37.67
2018-03-02T09:53:14.810Z,43.23
2018-03-02T09:55:42.370Z,50.10
2018-03-02T09:58:09.932Z,46.90
2018-03-02T10:00:37.504Z,55.97
2018-03-02T10:03:05.231Z,58.83
2018-03-02T10:05:32.825Z,55.10
2018-03-02T10:08:00.433Z,53.27
2018-03-02T10:10:28.036Z,57.83
2018-03-02T10:12:56.432Z,62.03
2018-03-02T10:15:24.939Z,50.23
2018-03-02T10:17:52.834Z,61.93
2018-03-02T10:20:20.434Z,54.00
2018-03-02T10:22:48.027Z,57.60
2018-03-02T10:25:15.595Z,60.03
2018-03-02T10:27:43.117Z,53.93
2018-03-02T10:30:10.770Z,48.23
2018-03-02T10:32:38.311Z,52.33
2018-03-02T10:35:05.839Z,56.67
2018-03-02T10:37:33.393Z,60.00
2018-03-02T10:40:01.089Z,54.10
2018-03-02T10:42:28.722Z,45.77
2018-03-02T10:44:56.377Z,52.33
2018-03-02T10:47:23.935Z,53.37
2018-03-02T10:49:51.508Z,52.10
2018-03-02T10:52:19.133Z,58.00
2018-03-02T10:54:46.671Z,51.97
2018-03-02T10:57:14.193Z,51.57
2018-03-02T10:59:41.809Z,51.50
2018-03-02T11:02:14.965Z,55.57
2018-03-02T11:04:47.405Z,50.40
2018-03-02T11:07:15.077Z,50.10
2018-03-02T11:09:42.796Z,50.00
2018-03-02T11:12:10.349Z,55.27
2018-03-02T11:14:37.938Z,51.33
2018-03-02T11:17:05.498Z,48.30
2018-03-02T11:19:33.058Z,45.60
2018-03-02T11:22:00.602Z,43.03
2018-03-02T11:24:28.181Z,53.87
2018-03-02T11:26:55.748Z,42.50
2018-03-02T11:29:23.334Z,48.93
2018-03-02T11:31:50.918Z,50.70
2018-03-02T11:34:18.525Z,45.80
2018-03-02T11:36:46.108Z,50.83
2018-03-02T11:39:13.717Z,51.50
2018-03-02T11:41:41.256Z,48.47
2018-03-02T11:44:08.800Z,48.73
2018-03-02T11:46:36.333Z,48.03
2018-03-02T11:49:03.935Z,50.80
2018-03-02T11:51:31.526Z,50.00
2018-03-02T11:53:59.116Z,58.00
2018-03-02T11:56:26.694Z,51.13
2018-03-02T11:58:54.336Z,51.83
2018-03-02T12:01:21.977Z,47.33
2018-03-02T12:03:49.503Z,48.33
2018-03-02T12:06:17.082Z,54.37
2018-03-02T12:08:44.630Z,49.30
2018-03-02T12:11:12.214Z,50.57
2018-03-02T12:13:39.778Z,56.80
2018-03-02T12:16:07.336Z,51.40
2018-03-02T12:18:34.965Z,52.40
2018-03-02T12:21:03.125Z,56.17
2018-03-02T12:23:30.665Z,52.00
2018-03-02T12:25:58.281Z,58.20
2018-03-02T12:28:26.767Z,54.73
2018-03-02T12:30:55.372Z,56.93
2018-03-02T12:33:22.937Z,67.23
2018-03-02T12:35:50.490Z,65.17
2018-03-02T12:38:18.198Z,59.30
2018-03-02T12:40:45.784Z,61.87
2018-03-02T12:43:13.414Z,73.77
2018-03-02T12:45:41.095Z,69.37
2018-03-02T12:48:08.719Z,58.97
2018-03-02T12:50:36.313Z,62.93
2018-03-02T12:53:03.887Z,65.10
2018-03-02T12:55:31.542Z,64.50
2018-03-02T12:57:59.235Z,61.87
2018-03-02T13:00:26.797Z,62.30
2018-03-02T13:02:54.578Z,59.87
2018-03-02T13:05:22.171Z,60.60
2018-03-02T13:07:50.004Z,61.73
2018-03-02T13:10:17.894Z,57.17
2018-03-02T13:12:45.479Z,58.10
2018-03-02T13:15:13.052Z,59.80
2018-03-02T13:17:40.610Z,57.77
2018-03-02T13:20:08.573Z,68.07
2018-03-02T13:22:41.321Z,62.57
2018-03-02T13:25:08.886Z,61.47
2018-03-02T13:27:48.277Z,66.70
2018-03-02T13:30:16.852Z,61.10
2018-03-02T13:33:05.098Z,61.33
2018-03-02T13:35:32.677Z,65.90
2018-03-02T13:38:00.260Z,68.53
2018-03-02T13:40:39.473Z,66.73
2018-03-02T13:43:07.031Z,67.87
2018-03-02T13:45:34.569Z,65.20
2018-03-02T13:48:31.890Z,63.33
2018-03-02T13:50:59.424Z,57.87
2018-03-02T13:53:27.901Z,68.40
2018-03-02T13:55:55.533Z,67.27
2018-03-02T13:58:23.074Z,70.07
2018-03-02T14:00:50.660Z,63.97
2018-03-02T14:03:29.830Z,64.13
2018-03-02T14:05:57.429Z,69.77
2018-03-02T14:08:25.774Z,61.57
2018-03-02T14:10:53.551Z,69.10
2018-03-02T14:13:21.205Z,65.87
2018-03-02T14:15:48.743Z,65.70
2018-03-02T14:18:16.300Z,73.23
2018-03-02T14:20:43.902Z,75.80
2018-03-02T14:23:11.454Z,70.87
2018-03-02T14:25:39.153Z,73.60
2018-03-02T14:28:07.694Z,70.87
2018-03-02T14:30:35.273Z,81.07
2018-03-02T14:33:03.765Z,82.13
2018-03-02T14:35:31.310Z,80.90
2018-03-02T14:37:58.933Z,78.70
2018-03-02T14:40:26.496Z,82.40
2018-03-02T14:42:54.096Z,85.73
2018-03-02T14:45:21.665Z,99.97
2018-03-02T14:47:49.200Z,75.97
2018-03-02T14:50:16.842Z,83.63
2018-03-02T14:52:44.420Z,83.33
2018-03-02T14:55:11.968Z,88.43
2018-03-02T14:57:39.628Z,93.13
2018-03-02T15:00:08.339Z,101.03
2018-03-02T15:02:35.897Z,94.77
2018-03-02T15:05:03.429Z,86.23
2018-03-02T15:07:30.994Z,89.03
2018-03-02T15:09:58.549Z,90.93
2018-03-02T15:12:26.356Z,88.40
2018-03-02T15:14:54.007Z,90.20
2018-03-02T15:17:21.605Z,94.33
2018-03-02T15:19:49.188Z,95.53
2018-03-02T15:22:16.760Z,81.80
2018-03-02T15:24:44.342Z,99.40
2018-03-02T15:27:11.913Z,88.00
2018-03-02T15:29:39.490Z,105.37
2018-03-02T15:32:07.102Z,107.13
2018-03-02T15:34:34.621Z,102.43
2018-03-02T15:37:02.154Z,99.77
2018-03-02T15:39:29.712Z,110.53
2018-03-02T15:41:57.303Z,107.80
2018-03-02T15:44:24.889Z,105.33
2018-03-02T15:46:52.447Z,132.87
2018-03-02T15:49:20.054Z,144.43
2018-03-02T15:51:47.657Z,136.10
2018-03-02T15:54:15.298Z,131.67
2018-03-02T15:56:42.894Z,119.73
2018-03-02T15:59:10.526Z,116.90
2018-03-02T16:01:38.254Z,125.63
2018-03-02T16:04:05.893Z,107.27
2018-03-02T16:06:33.463Z,107.77
2018-03-02T16:09:01.122Z,116.10
2018-03-02T16:11:28.706Z,142.30
2018-03-02T16:13:56.280Z,138.50
2018-03-02T16:16:23.895Z,160.23
2018-03-02T16:18:51.547Z,178.27
2018-03-02T16:21:19.173Z,195.10
2018-03-02T16:23:46.759Z,210.77
2018-03-02T16:26:14.329Z,193.20
2018-03-02T16:28:41.896Z,198.13
2018-03-02T16:31:09.594Z,180.03
2018-03-02T16:33:37.175Z,189.93
2018-03-02T16:36:04.746Z,175.30
2018-03-02T16:38:32.375Z,198.77
2018-03-02T16:40:59.984Z,190.37
2018-03-02T16:43:27.588Z,197.97
2018-03-02T16:45:55.207Z,189.37
2018-03-02T16:48:22.779Z,172.23
2018-03-02T16:50:50.376Z,151.43
2018-03-02T16:53:17.982Z,146.70
2018-03-02T16:55:45.534Z,152.13
2018-03-02T16:58:13.146Z,155.10
2018-03-02T17:00:40.753Z,130.87
2018-03-02T17:03:08.341Z,125.10
2018-03-02T17:05:36.010Z,120.82
2018-03-02T17:08:03.620Z,118.27
2018-03-02T17:10:31.217Z,110.37
2018-03-02T17:12:58.784Z,103.80
2018-03-02T17:15:26.377Z,105.93
2018-03-02T17:17:53.971Z,106.68
2018-03-02T17:20:21.600Z,97.20
2018-03-02T17:22:49.204Z,88.23
2018-03-02T17:25:17.787Z,102.38
2018-03-02T17:27:45.381Z,101.20
2018-03-02T17:30:13.044Z,101.83
2018-03-02T17:32:40.652Z,99.03
2018-03-02T17:35:08.325Z,118.10
2018-03-02T17:37:35.908Z,104.45
2018-03-02T17:40:03.515Z,94.93
2018-03-02T17:42:31.106Z,97.88
2018-03-02T17:44:58.747Z,110.10
2018-03-02T17:47:26.415Z,111.77
2018-03-02T17:49:53.986Z,122.00
2018-03-02T17:52:21.593Z,114.70
2018-03-02T17:54:49.187Z,131.90
2018-03-02T17:57:17.017Z,116.60
2018-03-02T17:59:44.642Z,114.10
2018-03-02T18:02:12.209Z,120.37
2018-03-02T18:04:40.467Z,126.40
2018-03-02T18:07:08.023Z,122.37
2018-03-02T18:09:35.599Z,130.33
2018-03-02T18:12:03.192Z,109.37
2018-03-02T18:14:30.762Z,139.03
2018-03-02T18:16:58.347Z,123.63
2018-03-02T18:19:25.910Z,125.73
2018-03-02T18:21:53.491Z,106.97
2018-03-02T18:24:21.056Z,100.30
2018-03-02T18:26:48.589Z,101.60
2018-03-02T18:29:16.267Z,121.20
2018-03-02T18:31:43.834Z,105.57
2018-03-02T18:34:11.447Z,119.83
2018-03-02T18:36:39.557Z,150.93
2018-03-02T18:39:07.149Z,128.60
2018-03-02T18:41:34.712Z,141.07
2018-03-02T18:44:02.297Z,127.30
2018-03-02T18:46:29.868Z,116.47
2018-03-02T18:48:57.473Z,117.00
2018-03-02T18:51:25.084Z,108.53
2018-03-02T18:53:53.489Z,103.23
2018-03-02T18:56:22.189Z,94.63
2018-03-02T18:58:49.737Z,99.30
2018-03-02T19:01:17.451Z,110.60
2018-03-02T19:03:45.008Z,103.70
2018-03-02T19:06:12.758Z,100.87
2018-03-02T19:08:40.330Z,95.63
2018-03-02T19:11:07.963Z,96.83
2018-03-02T19:13:35.549Z,96.90
2018-03-02T19:16:03.108Z,97.23
2018-03-02T19:18:30.684Z,100.60
2018-03-02T19:20:58.597Z,97.77
2018-03-02T19:23:26.287Z,99.60
2018-03-02T19:25:53.896Z,105.77
2018-03-02T19:28:21.539Z,93.77
2018-03-02T19:30:49.229Z,90.03
2018-03-02T19:33:17.786Z,98.47
2018-03-02T19:35:45.486Z,98.70
2018-03-02T19:38:13.191Z,109.00
2018-03-02T19:40:40.914Z,100.83
2018-03-02T19:43:08.911Z,93.20
2018-03-02T19:45:36.610Z,96.70
2018-03-02T19:48:04.270Z,109.00
2018-03-02T19:50:31.985Z,108.03
2018-03-02T19:52:59.647Z,124.30
2018-03-02T19:55:28.080Z,115.13
2018-03-02T19:57:55.742Z,122.83
2018-03-02T20:00:23.396Z,127.30
2018-03-02T20:02:51.029Z,122.13
2018-03-02T20:05:18.677Z,121.30
2018-03-02T20:07:46.510Z,129.00
2018-03-02T20:10:14.102Z,130.70
2018-03-02T20:12:41.700Z,125.40
2018-03-02T20:15:09.331Z,133.23
2018-03-02T20:17:36.918Z,132.40
2018-03-02T20:20:04.537Z,129.47
2018-03-02T20:22:32.175Z,130.30
2018-03-02T20:24:59.753Z,138.40
2018-03-02T20:27:27.400Z,126.87
2018-03-02T20:29:55.065Z,110.70
2018-03-02T20:32:22.737Z,112.53
2018-03-02T20:34:50.334Z,128.23
2018-03-02T20:37:17.945Z,122.43
2018-03-02T20:39:45.574Z,121.67
2018-03-02T20:42:13.165Z,111.30
2018-03-02T20:44:40.727Z,103.60
2018-03-02T20:47:08.283Z,134.27
2018-03-02T20:49:35.847Z,130.97
2018-03-02T20:52:03.425Z,125.70
2018-03-02T20:54:31.029Z,120.47
2018-03-02T20:56:58.599Z,111.40
2018-03-02T20:59:26.176Z,106.35
2018-03-02T21:01:53.737Z,110.90
2018-03-02T21:04:21.300Z,111.10
2018-03-02T21:06:48.952Z,131.27
2018-03-02T21:09:16.617Z,120.57
2018-03-02T21:11:44.174Z,125.80
2018-03-02T21:14:11.684Z,123.20
2018-03-02T21:16:40.006Z,118.10
2018-03-02T21:19:07.537Z,126.90
2018-03-02T21:21:35.052Z,129.30
2018-03-02T21:24:02.585Z,97.62
2018-03-02T21:26:30.180Z,100.53
2018-03-02T21:28:57.882Z,88.90
2018-03-02T21:31:25.425Z,105.67
2018-03-02T21:33:53.058Z,114.65
2018-03-02T21:36:20.812Z,97.77
2018-03-02T21:38:48.393Z,99.10
2018-03-02T21:41:15.940Z,112.30
2018-03-02T21:43:43.525Z,119.50
2018-03-02T21:46:11.017Z,122.17
2018-03-02T21:48:38.552Z,116.50
2018-03-02T21:51:06.124Z,122.63
2018-03-02T21:53:33.661Z,124.87
2018-03-02T21:56:01.173Z,120.07
2018-03-02T21:58:28.731Z,126.62
2018-03-02T22:00:56.296Z,122.32
2018-03-02T22:03:23.863Z,119.70
2018-03-02T22:05:51.381Z,155.53
2018-03-02T22:08:19.057Z,115.80
2018-03-02T22:10:46.634Z,113.03
2018-03-02T22:13:14.162Z,120.37
2018-03-02T22:15:41.766Z,124.43
2018-03-02T22:18:09.302Z,121.97
2018-03-02T22:20:36.813Z,112.97
2018-03-02T22:23:04.397Z,109.00
2018-03-02T22:25:32.076Z,113.37
2018-03-02T22:27:59.660Z,106.93
2018-03-02T22:30:27.274Z,106.17
2018-03-02T22:32:54.791Z,112.33
2018-03-02T22:35:22.372Z,100.12
2018-03-02T22:37:49.927Z,91.07
2018-03-02T22:40:17.465Z,83.97
2018-03-02T22:42:45.010Z,78.77
2018-03-02T22:45:12.551Z,89.07
2018-03-02T22:47:40.107Z,112.05
2018-03-02T22:50:07.632Z,91.03
2018-03-02T22:52:35.184Z,96.90
2018-03-02T22:55:02.776Z,87.07
2018-03-02T22:57:30.312Z,91.83
2018-03-02T22:59:57.905Z,98.35
2018-03-02T23:02:25.458Z,100.93
2018-03-02T23:04:53.099Z,84.50
2018-03-02T23:07:20.770Z,77.33
2018-03-02T23:09:48.388Z,77.35
2018-03-02T23:12:15.926Z,84.87
2018-03-02T23:14:43.476Z,79.30
2018-03-02T23:17:11.201Z,79.50
2018-03-02T23:19:38.731Z,68.90
2018-03-02T23:22:06.271Z,61.15
2018-03-02T23:24:33.824Z,63.85
2018-03-02T23:27:01.538Z,59.43
2018-03-02T23:29:29.115Z,64.70
2018-03-02T23:31:56.902Z,55.13
2018-03-02T23:34:24.541Z,45.03
2018-03-02T23:36:52.052Z,43.10
2018-03-02T23:39:19.602Z,46.03
2018-03-02T23:41:47.155Z,47.90
2018-03-02T23:44:14.788Z,43.78
2018-03-02T23:46:42.373Z,42.47
2018-03-02T23:49:09.936Z,38.25
2018-03-02T23:51:37.448Z,38.67
2018-03-02T23:54:05.010Z,34.43
2018-03-02T23:56:32.547Z,42.03
2018-03-02T23:59:00.093Z,34.80
